createdAt,value
2022-08-03T00:01:53.134Z,5.53
2022-08-03T00:06:04.133Z,5.30
2022-08-03T00:10:08.888Z,5.60
2022-08-03T00:14:13.389Z,6.33
2022-08-03T00:18:16.879Z,6.00
2022-08-03T00:22:21.645Z,5.87
2022-08-03T00:26:27.394Z,5.83
2022-08-03T00:30:31.229Z,6.97
2022-08-03T00:34:57.292Z,7.07
2022-08-03T00:38:59.395Z,6.57
2022-08-03T00:43:04.462Z,6.63
2022-08-03T00:47:08.104Z,6.17
2022-08-03T00:51:11.605Z,5.67
2022-08-03T00:55:16.344Z,5.70
2022-08-03T00:59:20.174Z,5.80
2022-08-03T01:03:23.648Z,5.50
2022-08-03T01:07:40.037Z,6.13
2022-08-03T01:12:00.534Z,6.27
2022-08-03T01:16:10.699Z,5.80
2022-08-03T01:20:19.702Z,6.30
2022-08-03T01:24:36.458Z,6.80
2022-08-03T01:29:04.879Z,5.67
2022-08-03T01:33:16.231Z,6.80
2022-08-03T01:37:27.055Z,6.93
2022-08-03T01:41:38.120Z,6.27
2022-08-03T01:45:42.307Z,5.77
2022-08-03T01:49:47.786Z,6.63
2022-08-03T01:53:54.898Z,6.50
2022-08-03T01:58:05.247Z,5.20
2022-08-03T02:02:33.911Z,5.80
2022-08-03T02:06:59.988Z,6.10
2022-08-03T02:11:04.528Z,5.27
2022-08-03T02:15:12.292Z,6.13
2022-08-03T02:19:19.358Z,5.83
2022-08-03T02:23:25.085Z,5.80
2022-08-03T02:27:30.879Z,5.70
2022-08-03T02:31:38.184Z,5.57
2022-08-03T02:35:43.186Z,6.23
2022-08-03T02:39:49.094Z,5.87
2022-08-03T02:43:56.841Z,6.20
2022-08-03T02:48:13.681Z,5.43
2022-08-03T02:52:18.921Z,6.33
2022-08-03T02:56:25.418Z,6.37
2022-08-03T03:00:29.213Z,6.57
2022-08-03T03:04:34.286Z,7.33
2022-08-03T03:08:38.899Z,7.30
2022-08-03T03:12:51.558Z,5.63
2022-08-03T03:16:57.693Z,6.30
2022-08-03T03:21:03.084Z,6.07
2022-08-03T03:25:08.278Z,6.43
2022-08-03T03:29:13.364Z,6.40
2022-08-03T03:33:17.556Z,5.97
2022-08-03T03:37:21.027Z,6.00
2022-08-03T03:41:24.609Z,6.40
2022-08-03T03:45:36.761Z,6.20
2022-08-03T03:49:40.728Z,6.23
2022-08-03T03:53:56.829Z,6.40
2022-08-03T03:58:00.869Z,5.90
2022-08-03T04:02:07.104Z,6.63
2022-08-03T04:06:29.143Z,6.77
2022-08-03T04:10:53.334Z,6.50
2022-08-03T04:15:00.469Z,6.33
2022-08-03T04:19:09.410Z,6.27
2022-08-03T04:23:15.776Z,6.87
2022-08-03T04:27:24.615Z,6.87
2022-08-03T04:31:30.783Z,6.43
2022-08-03T04:35:59.802Z,7.40
2022-08-03T04:40:03.489Z,7.10
2022-08-03T04:44:07.730Z,6.60
2022-08-03T04:48:12.418Z,6.20
2022-08-03T04:52:17.593Z,6.00
2022-08-03T04:56:21.079Z,6.07
2022-08-03T05:00:29.633Z,5.60
2022-08-03T05:04:33.108Z,6.20
2022-08-03T05:08:46.429Z,5.80
2022-08-03T05:12:51.819Z,5.20
2022-08-03T05:16:55.089Z,5.63
2022-08-03T05:20:58.342Z,4.97
2022-08-03T05:25:05.390Z,4.93
2022-08-03T05:29:08.837Z,5.60
2022-08-03T05:33:12.753Z,4.93
2022-08-03T05:37:16.453Z,4.63
2022-08-03T05:41:36.529Z,5.43
2022-08-03T05:45:41.595Z,5.17
2022-08-03T05:49:44.958Z,4.80
2022-08-03T05:53:48.256Z,4.93
2022-08-03T05:57:55.284Z,4.83
2022-08-03T06:02:02.054Z,4.63
2022-08-03T06:06:05.663Z,5.20
2022-08-03T06:10:33.761Z,5.30
2022-08-03T06:14:35.908Z,6.10
2022-08-03T06:18:40.669Z,5.30
2022-08-03T06:22:51.189Z,4.73
2022-08-03T06:27:03.263Z,4.43
2022-08-03T06:31:08.751Z,4.60
2022-08-03T06:35:12.098Z,6.20
2022-08-03T06:39:15.689Z,4.87
2022-08-03T06:43:19.015Z,4.33
2022-08-03T06:47:24.741Z,4.00
2022-08-03T06:52:03.029Z,4.73
2022-08-03T06:55:55.028Z,4.00
2022-08-03T07:00:10.161Z,4.07
2022-08-03T07:04:15.945Z,3.60
2022-08-03T07:08:20.082Z,3.30
2022-08-03T07:12:38.636Z,2.97
2022-08-03T07:16:59.877Z,2.80
2022-08-03T07:21:04.896Z,3.07
2022-08-03T07:25:10.209Z,3.10
2022-08-03T07:29:15.013Z,3.33
2022-08-03T07:33:18.866Z,3.20
2022-08-03T07:37:23.488Z,3.17
2022-08-03T07:41:26.822Z,2.80
2022-08-03T07:45:30.749Z,3.00
2022-08-03T07:49:34.365Z,3.13
2022-08-03T07:53:47.289Z,2.60
2022-08-03T07:58:02.017Z,2.60
2022-08-03T08:02:07.961Z,2.70
2022-08-03T08:06:11.131Z,2.90
2022-08-03T08:10:17.096Z,2.50
2022-08-03T08:14:20.360Z,3.00
2022-08-03T08:18:24.129Z,2.83
2022-08-03T08:22:30.489Z,2.30
2022-08-03T08:26:35.672Z,2.50
2022-08-03T08:30:38.889Z,2.60
2022-08-03T08:34:43.468Z,2.37
2022-08-03T08:38:47.008Z,2.30
2022-08-03T08:42:59.321Z,2.53
2022-08-03T08:47:04.962Z,2.40
2022-08-03T08:51:11.653Z,2.43
2022-08-03T08:55:21.077Z,2.50
2022-08-03T08:59:26.406Z,2.10
2022-08-03T09:03:50.261Z,2.70
2022-08-03T09:07:53.965Z,2.50
2022-08-03T09:12:09.003Z,2.43
2022-08-03T09:16:23.012Z,2.17
2022-08-03T09:20:30.321Z,2.53
2022-08-03T09:24:41.074Z,1.87
2022-08-03T09:28:59.875Z,2.40
2022-08-03T09:33:08.752Z,2.13
2022-08-03T09:37:16.405Z,2.50
2022-08-03T09:41:20.554Z,2.37
2022-08-03T09:45:28.021Z,2.13
2022-08-03T09:49:32.976Z,2.30
2022-08-03T09:53:58.980Z,2.13
2022-08-03T09:58:09.303Z,2.93
2022-08-03T10:02:23.923Z,2.60
2022-08-03T10:06:29.153Z,2.13
2022-08-03T10:10:44.067Z,2.50
2022-08-03T10:14:48.335Z,2.47
2022-08-03T10:18:51.608Z,2.60
2022-08-03T10:22:57.373Z,2.60
2022-08-03T10:27:04.082Z,2.20
2022-08-03T10:31:09.446Z,2.30
2022-08-03T10:35:20.136Z,2.37
2022-08-03T10:39:29.624Z,1.97
2022-08-03T10:43:38.029Z,2.17
2022-08-03T10:47:42.297Z,2.63
2022-08-03T10:51:48.342Z,2.40
2022-08-03T10:56:46.618Z,2.50
2022-08-03T11:00:52.111Z,2.70
2022-08-03T11:05:30.318Z,2.67
2022-08-03T11:09:43.298Z,2.30
2022-08-03T11:13:59.594Z,2.00
2022-08-03T11:18:11.772Z,2.13
2022-08-03T11:22:16.077Z,2.00
2022-08-03T11:26:21.341Z,1.83
2022-08-03T11:30:29.369Z,1.93
2022-08-03T11:34:32.781Z,1.80
2022-08-03T11:38:36.122Z,1.90
2022-08-03T11:42:48.950Z,2.03
2022-08-03T11:46:53.828Z,1.93
2022-08-03T11:50:57.989Z,1.80
2022-08-03T11:55:01.415Z,1.70
2022-08-03T11:59:19.212Z,2.00
2022-08-03T12:03:26.112Z,2.20
2022-08-03T12:08:03.173Z,2.13
2022-08-03T12:12:00.545Z,2.00
2022-08-03T12:16:04.486Z,2.20
2022-08-03T12:20:11.485Z,1.83
2022-08-03T12:24:14.711Z,2.03
2022-08-03T12:28:35.843Z,1.90
2022-08-03T12:32:43.788Z,1.70
2022-08-03T12:36:56.027Z,1.67
2022-08-03T12:41:00.945Z,1.80
2022-08-03T12:45:19.348Z,1.70
2022-08-03T12:49:22.660Z,1.77
2022-08-03T12:53:31.237Z,1.83
2022-08-03T12:57:42.866Z,2.03
2022-08-03T13:01:55.168Z,1.77
2022-08-03T13:05:58.849Z,1.70
2022-08-03T13:10:07.869Z,1.50
2022-08-03T13:14:13.620Z,1.70
2022-08-03T13:18:23.230Z,1.93
2022-08-03T13:22:29.025Z,1.93
2022-08-03T13:26:33.668Z,1.80
2022-08-03T13:30:37.005Z,2.00
2022-08-03T13:34:40.463Z,1.70
2022-08-03T13:38:43.886Z,1.70
2022-08-03T13:42:50.074Z,1.40
2022-08-03T13:46:53.531Z,1.80
2022-08-03T13:50:56.787Z,1.80
2022-08-03T13:55:00.364Z,1.70
2022-08-03T13:59:05.187Z,1.67
2022-08-03T14:03:14.109Z,1.40
2022-08-03T14:07:18.204Z,1.37
2022-08-03T14:11:21.819Z,1.87
2022-08-03T14:15:26.742Z,1.40
2022-08-03T14:19:30.104Z,1.50
2022-08-03T14:23:33.537Z,1.40
2022-08-03T14:27:37.236Z,1.80
2022-08-03T14:32:11.529Z,1.43
2022-08-03T14:36:06.181Z,1.40
2022-08-03T14:40:11.018Z,1.70
2022-08-03T14:44:14.556Z,1.63
2022-08-03T14:50:30.654Z,1.80
2022-08-03T14:53:11.076Z,2.20
2022-08-03T14:57:14.350Z,1.40
2022-08-03T15:02:02.175Z,1.40
2022-08-03T15:05:42.290Z,1.43
2022-08-03T15:09:45.764Z,1.80
2022-08-03T15:13:49.081Z,2.30
2022-08-03T15:18:00.323Z,1.60
2022-08-03T15:22:05.817Z,2.07
2022-08-03T15:26:33.953Z,1.70
2022-08-03T15:30:37.089Z,1.50
2022-08-03T15:34:41.241Z,1.60
2022-08-03T15:38:55.413Z,1.77
2022-08-03T15:43:01.026Z,2.10
2022-08-03T15:47:04.497Z,2.27
2022-08-03T15:51:08.374Z,2.40
2022-08-03T15:55:15.863Z,1.83
2022-08-03T15:59:20.867Z,1.80
2022-08-03T16:03:24.331Z,1.80
2022-08-03T16:08:02.731Z,1.90
2022-08-03T16:12:15.680Z,1.53
2022-08-03T16:16:19.834Z,1.67
2022-08-03T16:20:29.270Z,1.80
2022-08-03T16:24:37.917Z,1.80
2022-08-03T16:28:44.812Z,1.80
2022-08-03T16:32:48.044Z,2.07
2022-08-03T16:36:51.295Z,1.83
2022-08-03T16:40:54.709Z,1.90
2022-08-03T16:44:59.647Z,1.70
2022-08-03T16:49:03.043Z,2.23
2022-08-03T16:53:09.206Z,1.90
2022-08-03T16:57:12.958Z,2.10
2022-08-03T17:01:29.273Z,2.23
2022-08-03T17:05:48.132Z,2.10
2022-08-03T17:09:53.327Z,2.10
2022-08-03T17:13:59.913Z,2.23
2022-08-03T17:18:08.950Z,2.60
2022-08-03T17:22:15.967Z,2.37
2022-08-03T17:26:22.183Z,2.60
2022-08-03T17:30:45.952Z,2.30
2022-08-03T17:34:52.000Z,2.17
2022-08-03T17:38:55.567Z,2.40
2022-08-03T17:43:00.103Z,2.60
2022-08-03T17:47:03.503Z,3.10
2022-08-03T17:51:18.004Z,2.40
2022-08-03T17:55:56.878Z,2.53
2022-08-03T17:59:59.376Z,2.30
2022-08-03T18:04:10.957Z,3.03
2022-08-03T18:08:19.850Z,2.30
2022-08-03T18:12:32.744Z,3.50
2022-08-03T18:16:40.525Z,3.27
2022-08-03T18:20:45.906Z,2.20
2022-08-03T18:24:59.470Z,2.70
2022-08-03T18:29:11.447Z,3.40
2022-08-03T18:34:16.660Z,2.63
2022-08-03T18:37:51.864Z,2.83
2022-08-03T18:42:00.225Z,2.80
2022-08-03T18:46:07.849Z,2.37
2022-08-03T18:50:19.914Z,3.00
2022-08-03T18:54:45.434Z,2.50
2022-08-03T18:59:10.050Z,2.90
2022-08-03T19:03:24.144Z,3.03
2022-08-03T19:07:35.833Z,2.97
2022-08-03T19:12:11.215Z,2.77
2022-08-03T19:16:23.619Z,2.83
2022-08-03T19:20:31.927Z,2.90
2022-08-03T19:24:40.608Z,3.37
2022-08-03T19:28:45.086Z,3.30
2022-08-03T19:33:13.495Z,3.73
2022-08-03T19:37:17.520Z,2.70
2022-08-03T19:41:31.201Z,3.20
2022-08-03T19:46:06.440Z,2.80
2022-08-03T19:50:14.304Z,3.20
2022-08-03T19:54:29.740Z,3.57
2022-08-03T19:58:38.276Z,3.57
2022-08-03T20:02:43.017Z,3.60
2022-08-03T20:06:52.252Z,3.50
2022-08-03T20:10:56.404Z,3.80
2022-08-03T20:15:00.766Z,3.57
2022-08-03T20:19:04.487Z,3.50
2022-08-03T20:23:21.180Z,2.70
2022-08-03T20:27:30.286Z,2.80
2022-08-03T20:31:36.239Z,3.80
2022-08-03T20:35:41.992Z,3.70
2022-08-03T20:39:50.752Z,3.10
2022-08-03T20:43:54.426Z,3.93
2022-08-03T20:48:01.745Z,3.70
2022-08-03T20:52:05.863Z,3.63
2022-08-03T20:56:25.987Z,3.07
2022-08-03T21:00:29.632Z,3.80
2022-08-03T21:04:35.892Z,3.80
2022-08-03T21:08:46.974Z,3.63
2022-08-03T21:13:12.190Z,3.50
2022-08-03T21:17:39.995Z,3.40
2022-08-03T21:21:47.897Z,4.17
2022-08-03T21:25:52.565Z,2.97
2022-08-03T21:29:57.963Z,3.10
2022-08-03T21:34:03.263Z,4.10
2022-08-03T21:38:30.037Z,4.10
2022-08-03T21:42:33.772Z,3.40
2022-08-03T21:46:40.388Z,4.00
2022-08-03T21:50:44.477Z,3.47
2022-08-03T21:54:51.216Z,3.63
2022-08-03T21:58:56.743Z,3.60
2022-08-03T22:03:09.307Z,3.80
2022-08-03T22:07:21.825Z,3.60
2022-08-03T22:11:25.606Z,4.40
2022-08-03T22:15:29.066Z,4.50
2022-08-03T22:19:33.926Z,3.93
2022-08-03T22:23:40.925Z,3.90
2022-08-03T22:27:46.185Z,3.70
2022-08-03T22:31:58.837Z,3.77
2022-08-03T22:36:05.993Z,4.10
2022-08-03T22:40:12.616Z,4.07
2022-08-03T22:44:16.468Z,3.97
2022-08-03T22:48:21.903Z,3.87
2022-08-03T22:52:28.542Z,4.20
2022-08-03T22:56:31.945Z,4.07
2022-08-03T23:00:36.008Z,4.00
2022-08-03T23:04:42.298Z,4.37
2022-08-03T23:08:48.638Z,4.20
2022-08-03T23:12:53.159Z,4.37
2022-08-03T23:17:04.044Z,4.30
2022-08-03T23:21:11.104Z,4.50
2022-08-03T23:25:17.425Z,4.10
2022-08-03T23:29:22.982Z,4.33
2022-08-03T23:33:27.798Z,4.27
2022-08-03T23:37:33.454Z,3.80
2022-08-03T23:42:00.662Z,3.87
2022-08-03T23:46:08.026Z,4.50
2022-08-03T23:50:11.433Z,4.00
2022-08-03T23:54:25.375Z,4.77
2022-08-03T23:58:42.523Z,4.20
